Time;durP1;ratioP1;P1;durP2;ratioP2;P2;SDS_P1;SDS_P2;PMS_P1;PMS_P2;Temp;Humidity;BMP_temperature;BMP_pressure;BME280_temperature;BME280_humidity;BME280_pressure;Samples;Min_cycle;Max_cycle;Signal;HPM_P1;HPM_P2
2022/10/20 00:01:18;;;;;;;;;17.50;14.50;;;;;18.11;81.51;100866.81;5018672;28;45436;-47
2022/10/20 00:03:44;;;;;;;;;17.25;15.75;;;;;18.16;81.12;100875.19;5001054;28;45417;-48
2022/10/20 00:06:15;;;;;;;;;18.25;16.00;;;;;18.16;80.75;100863.56;5019130;28;45356;-45
2022/10/20 00:08:41;;;;;;;;;14.50;12.00;;;;;18.16;81.06;100864.41;5018979;28;46569;-44
2022/10/20 00:11:08;;;;;;;;;18.75;15.75;;;;;18.15;80.89;100857.34;5018814;28;45430;-43
2022/10/20 00:13:35;;;;;;;;;16.50;14.00;;;;;18.12;81.07;100863.13;5019087;28;45387;-44
2022/10/20 00:16:01;;;;;;;;;15.50;14.50;;;;;18.12;81.00;100870.38;5019182;28;45440;-45
2022/10/20 00:18:26;;;;;;;;;17.75;13.25;;;;;18.13;80.84;100870.19;5018233;28;46010;-46
2022/10/20 00:20:52;;;;;;;;;15.00;12.50;;;;;18.13;81.13;100863.97;5018534;28;45404;-46
2022/10/20 00:23:18;;;;;;;;;15.75;14.00;;;;;18.13;80.98;100863.97;5018835;28;45328;-46
2022/10/20 00:25:43;;;;;;;;;15.00;14.50;;;;;18.14;80.94;100860.25;5018772;28;45377;-47
2022/10/20 00:28:08;;;;;;;;;14.75;14.75;;;;;18.15;81.01;100851.13;5018186;28;46288;-48
2022/10/20 00:30:34;;;;;;;;;17.75;13.50;;;;;18.13;81.06;100853.19;5018410;28;45523;-46
2022/10/20 00:33:01;;;;;;;;;17.00;15.00;;;;;18.13;80.94;100850.50;5018626;28;45288;-45
2022/10/20 00:35:27;;;;;;;;;20.75;15.25;;;;;18.11;80.93;100845.28;5018557;28;45438;-48
2022/10/20 00:37:53;;;;;;;;;15.50;12.75;;;;;18.11;81.21;100842.59;5018163;28;45364;-46
2022/10/20 00:40:18;;;;;;;;;16.00;14.50;;;;;18.12;81.32;100838.91;5017963;28;45508;-46
2022/10/20 00:42:44;;;;;;;;;22.50;15.75;;;;;18.10;81.13;100849.00;5018430;28;45448;-46
2022/10/20 00:45:16;;;;;;;;;18.50;15.75;;;;;18.11;81.26;100839.91;5018603;28;45431;-46
2022/10/20 00:47:43;;;;;;;;;16.50;13.50;;;;;18.13;81.15;100851.34;5018026;28;45349;-47
2022/10/20 00:50:23;;;;;;;;;21.25;16.00;;;;;18.12;81.17;100838.06;5017253;28;45473;-45
2022/10/20 00:52:50;;;;;;;;;18.00;15.50;;;;;18.10;81.20;100834.72;5018113;28;45226;-45
2022/10/20 00:55:21;;;;;;;;;18.00;16.25;;;;;18.08;81.35;100829.56;5018464;28;45354;-47
2022/10/20 00:57:49;;;;;;;;;19.00;17.50;;;;;18.06;81.65;100836.13;5017605;28;46390;-47
2022/10/20 01:00:15;;;;;;;;;15.50;13.25;;;;;18.02;81.57;100827.63;5018019;28;45508;-48
2022/10/20 01:02:42;;;;;;;;;15.75;13.50;;;;;18.06;81.48;100833.44;5017716;28;45360;-46
2022/10/20 01:05:07;;;;;;;;;18.00;15.75;;;;;18.05;81.38;100840.69;5018253;28;45313;-45
2022/10/20 01:07:33;;;;;;;;;17.50;15.75;;;;;18.04;81.91;100828.28;5017859;28;45271;-47
2022/10/20 01:09:59;;;;;;;;;21.00;21.00;;;;;18.02;81.96;100821.41;5017972;28;45384;-46
2022/10/20 01:12:49;;;;;;;;;20.00;15.00;;;;;18.01;81.49;100822.44;5017922;28;45321;-48
2022/10/20 01:15:26;;;;;;;;;18.00;15.00;;;;;18.01;81.48;100836.72;5018069;28;45382;-45
2022/10/20 01:18:04;;;;;;;;;22.50;17.50;;;;;17.97;81.86;100842.69;5016092;28;46226;-46
2022/10/20 01:20:54;;;;;;;;;16.50;14.75;;;;;17.90;82.12;100850.69;5017621;28;45392;-48
2022/10/20 01:23:35;;;;;;;;;19.50;16.50;;;;;17.86;82.41;100857.47;5017834;28;45289;-47
2022/10/20 01:26:31;;;;;;;;;13.50;13.50;;;;;17.78;82.56;100849.53;5017757;28;45455;-49
2022/10/20 01:29:03;;;;;;;;;14.75;14.00;;;;;17.77;82.63;100842.47;5017427;28;47182;-47
2022/10/20 01:31:41;;;;;;;;;19.00;16.75;;;;;17.68;83.02;100849.81;5017577;28;45409;-47
2022/10/20 01:34:22;;;;;;;;;19.00;16.25;;;;;17.67;83.17;100865.13;5017463;28;45289;-46
2022/10/20 01:37:04;;;;;;;;;15.50;15.00;;;;;17.57;83.24;100839.53;5017531;28;45473;-45
2022/10/20 01:39:41;;;;;;;;;16.25;16.00;;;;;17.73;83.11;100862.69;5017414;28;46430;-46
2022/10/20 01:42:13;;;;;;;;;16.50;15.50;;;;;17.74;83.41;100856.28;5017178;28;45321;-47
2022/10/20 01:44:41;;;;;;;;;21.25;14.50;;;;;17.70;83.18;100866.63;5017538;28;45430;-46
2022/10/20 01:47:09;;;;;;;;;8.50;6.00;;;;;17.67;82.99;100872.38;5017557;28;45330;-47
2022/10/20 01:49:35;;;;;;;;;16.50;15.00;;;;;17.70;82.92;100929.31;5017072;28;45544;-47
2022/10/20 01:52:00;;;;;;;;;16.00;15.50;;;;;17.69;83.05;100916.88;5017269;28;45436;-48
2022/10/20 01:54:28;;;;;;;;;16.00;14.25;;;;;17.65;83.09;100893.22;5017254;28;45453;-46
2022/10/20 01:57:12;;;;;;;;;20.50;18.00;;;;;17.59;83.42;100908.28;5017343;28;45366;-47
2022/10/20 02:00:00;;;;;;;;;17.00;14.00;;;;;17.56;83.26;100903.25;5016960;28;47206;-45
2022/10/20 02:02:46;;;;;;;;;21.50;15.75;;;;;17.56;83.75;100889.81;5016874;28;45354;-48
2022/10/20 02:05:18;;;;;;;;;15.25;15.00;;;;;17.56;83.92;100868.28;5017216;28;45195;-49
2022/10/20 02:07:43;;;;;;;;;15.25;12.25;;;;;17.55;83.56;100842.44;5017172;28;45480;-47
2022/10/20 02:10:20;;;;;;;;;20.00;14.50;;;;;17.54;83.15;100838.09;5016761;28;46388;-46
2022/10/20 02:12:52;;;;;;;;;14.25;12.00;;;;;17.59;83.51;100829.44;5016993;28;45294;-45
2022/10/20 02:15:22;;;;;;;;;19.50;15.00;;;;;17.67;83.24;100816.69;5016892;28;45402;-45
2022/10/20 02:17:52;;;;;;;;;5.75;3.00;;;;;17.69;83.05;100782.34;5016849;28;45337;-46
2022/10/20 02:20:18;;;;;;;;;18.50;13.50;;;;;17.77;83.14;100764.44;5016850;28;45367;-46
2022/10/20 02:22:44;;;;;;;;;11.75;10.75;;;;;17.83;82.95;100766.38;5016516;28;45218;-47
2022/10/20 02:25:11;;;;;;;;;11.75;11.00;;;;;17.91;82.52;100779.72;5016860;28;45377;-46
2022/10/20 02:27:39;;;;;;;;;16.00;14.25;;;;;17.97;82.41;100783.47;5017133;28;45290;-45
2022/10/20 02:30:09;;;;;;;;;13.75;11.25;;;;;18.04;82.56;100765.53;5016501;28;45554;-45
2022/10/20 02:32:37;;;;;;;;;18.00;10.50;;;;;18.09;82.17;100745.06;5016661;28;45360;-46
2022/10/20 02:35:06;;;;;;;;;16.75;13.25;;;;;18.05;82.23;100689.94;5016897;28;45797;-47
2022/10/20 02:37:31;;;;;;;;;14.25;12.00;;;;;18.13;81.47;100680.91;5016653;28;45341;-47
2022/10/20 02:39:56;;;;;;;;;8.75;8.75;;;;;18.23;81.15;100675.16;5016654;28;46907;-46
2022/10/20 02:42:21;;;;;;;;;13.75;10.00;;;;;18.26;81.15;100680.97;5015065;28;45246;-49
2022/10/20 02:44:47;;;;;;;;;9.25;7.00;;;;;18.37;80.62;100693.03;5016527;28;45512;-47
2022/10/20 02:47:12;;;;;;;;;8.50;8.00;;;;;18.43;80.69;100694.94;5016927;28;45375;-46
2022/10/20 02:49:38;;;;;;;;;11.50;7.50;;;;;18.49;79.96;100690.59;5016200;28;45931;-44
2022/10/20 02:52:03;;;;;;;;;11.50;7.00;;;;;18.54;79.47;100682.75;5016725;28;45428;-47
2022/10/20 02:54:28;;;;;;;;;8.00;6.00;;;;;18.25;79.18;100640.78;5016506;28;45502;-45
2022/10/20 02:56:54;;;;;;;;;7.25;6.75;;;;;18.67;78.42;100699.00;5016186;28;45359;-46
2022/10/20 02:59:19;;;;;;;;;8.75;6.50;;;;;18.73;77.76;100719.78;5016476;28;45494;-45
2022/10/20 03:01:45;;;;;;;;;9.00;5.00;;;;;18.79;77.29;100739.69;5016406;28;45551;-48
2022/10/20 03:04:11;;;;;;;;;7.75;6.00;;;;;18.83;76.96;100747.16;5016573;28;45416;-46
2022/10/20 03:06:37;;;;;;;;;10.75;8.75;;;;;18.87;75.73;100753.00;5016564;28;45385;-46
2022/10/20 03:09:02;;;;;;;;;10.25;5.00;;;;;18.81;76.34;100753.81;5016052;28;46403;-45
2022/10/20 03:11:28;;;;;;;;;12.50;5.50;;;;;18.93;75.85;100781.84;5016455;28;45277;-49
2022/10/20 03:13:53;;;;;;;;;7.00;4.75;;;;;18.97;75.89;100785.00;5018391;28;45416;-45
2022/10/20 03:16:18;;;;;;;;;8.00;6.75;;;;;18.98;76.30;100783.94;5020139;28;45427;-46
2022/10/20 03:18:44;;;;;;;;;7.50;5.50;;;;;18.97;77.07;100774.22;5019295;28;45582;-45
2022/10/20 03:21:09;;;;;;;;;8.75;8.75;;;;;18.91;77.98;100759.66;5019500;28;45436;-45
2022/10/20 03:23:34;;;;;;;;;10.00;7.00;;;;;18.87;78.49;100753.00;5019852;28;45330;-45
2022/10/20 03:26:05;;;;;;;;;9.75;5.75;;;;;18.85;78.85;100738.91;5020228;28;45411;-49
2022/10/20 03:28:30;;;;;;;;;10.80;5.20;;;;;18.81;79.23;100737.63;5019812;28;45408;-49
2022/10/20 03:30:57;;;;;;;;;9.50;6.25;;;;;18.84;79.39;100758.81;5019503;28;45148;-48
2022/10/20 03:33:22;;;;;;;;;5.00;5.00;;;;;18.80;79.06;100768.31;5019494;28;45426;-46
2022/10/20 03:35:48;;;;;;;;;8.25;7.00;;;;;18.68;79.18;100763.47;5019785;28;45340;-46
2022/10/20 03:38:13;;;;;;;;;9.75;6.50;;;;;18.75;79.68;100774.31;5019225;28;45282;-45
2022/10/20 03:40:38;;;;;;;;;9.75;8.00;;;;;18.75;79.91;100765.38;5019276;28;45469;-47
2022/10/20 03:43:04;;;;;;;;;11.00;6.75;;;;;18.74;80.26;100763.72;5019265;28;45547;-44
2022/10/20 03:45:29;;;;;;;;;6.75;6.00;;;;;18.71;80.03;100775.75;5019532;28;45371;-45
2022/10/20 03:47:55;;;;;;;;;7.25;7.25;;;;;18.64;80.09;100772.97;5019031;28;45390;-46
2022/10/20 03:50:20;;;;;;;;;9.25;8.00;;;;;18.68;80.87;100787.72;5018283;28;45842;-46
2022/10/20 03:52:48;;;;;;;;;5.75;5.00;;;;;18.65;80.27;100793.50;5019076;28;45360;-45
2022/10/20 03:55:18;;;;;;;;;12.00;5.00;;;;;18.56;80.79;100778.50;5019370;28;45321;-48
2022/10/20 03:57:44;;;;;;;;;8.75;6.50;;;;;18.63;81.27;100786.66;5018102;28;46582;-47
2022/10/20 04:00:10;;;;;;;;;7.25;7.25;;;;;18.63;81.81;100786.66;5019068;28;45423;-46
2022/10/20 04:02:39;;;;;;;;;10.80;7.80;;;;;18.61;81.28;100791.38;5018730;28;45414;-44
2022/10/20 04:05:05;;;;;;;;;7.75;6.50;;;;;18.58;82.01;100797.16;5019028;28;45353;-46
2022/10/20 04:07:30;;;;;;;;;9.50;7.50;;;;;18.55;82.09;100786.81;5018767;28;47950;-48
2022/10/20 04:09:56;;;;;;;;;9.75;8.00;;;;;18.59;82.39;100778.13;5018773;28;45230;-44
2022/10/20 04:12:22;;;;;;;;;8.25;7.50;;;;;18.57;83.35;100773.94;5019070;28;45395;-47
2022/10/20 04:14:47;;;;;;;;;9.25;7.00;;;;;18.57;83.50;100763.19;5018708;28;45375;-44
2022/10/20 04:17:13;;;;;;;;;12.00;7.50;;;;;18.43;83.94;100740.72;5018662;28;45469;-47
2022/10/20 04:19:38;;;;;;;;;10.25;8.25;;;;;18.54;84.14;100759.03;5018813;28;45323;-45
2022/10/20 04:22:03;;;;;;;;;12.50;8.00;;;;;18.42;84.81;100742.59;5018492;28;45898;-47
2022/10/20 04:24:29;;;;;;;;;11.25;8.00;;;;;18.44;84.89;100755.84;5017682;28;45455;-47
2022/10/20 04:26:54;;;;;;;;;11.50;9.00;;;;;18.42;85.27;100756.06;5018138;28;46046;-46
2022/10/20 04:29:19;;;;;;;;;14.00;9.50;;;;;18.38;85.07;100738.63;5018509;28;45358;-45
2022/10/20 04:31:45;;;;;;;;;12.00;8.00;;;;;18.40;85.35;100733.03;5018591;28;45382;-47
2022/10/20 04:34:10;;;;;;;;;10.25;9.00;;;;;18.37;85.05;100726.19;5018527;28;45434;-47
2022/10/20 04:36:36;;;;;;;;;7.50;7.25;;;;;18.19;85.22;100709.72;5018442;28;46036;-45
2022/10/20 04:39:04;;;;;;;;;7.75;7.75;;;;;18.36;85.23;100750.63;5018375;28;45392;-48
2022/10/20 04:41:29;;;;;;;;;10.25;7.00;;;;;18.35;85.62;100765.94;5018352;28;45267;-47
2022/10/20 04:43:54;;;;;;;;;7.00;6.25;;;;;18.33;85.96;100777.94;5018581;28;45215;-47
2022/10/20 04:46:20;;;;;;;;;13.25;10.25;;;;;18.23;86.65;100759.44;5018087;28;45440;-46
2022/10/20 04:48:45;;;;;;;;;9.25;8.50;;;;;18.28;86.22;100758.84;5000316;28;45414;-48
2022/10/20 04:51:13;;;;;;;;;9.25;8.00;;;;;18.25;86.36;100759.28;5018309;28;45238;-48
2022/10/20 04:53:39;;;;;;;;;14.00;7.00;;;;;18.19;86.50;100755.47;5018235;28;45238;-48
2022/10/20 04:56:06;;;;;;;;;11.75;10.50;;;;;18.19;87.47;100759.00;5017954;28;46311;-46
2022/10/20 04:58:33;;;;;;;;;8.25;8.00;;;;;18.17;87.80;100744.91;5017858;28;45451;-45
2022/10/20 05:01:04;;;;;;;;;12.75;10.00;;;;;18.13;87.55;100740.13;5018148;28;45364;-47
2022/10/20 05:03:30;;;;;;;;;12.50;9.25;;;;;18.11;87.67;100742.16;5018347;28;45274;-45
2022/10/20 05:06:22;;;;;;;;;9.75;8.75;;;;;18.07;87.39;100747.09;5017908;28;46169;-47
2022/10/20 05:08:50;;;;;;;;;16.60;8.80;;;;;18.08;88.08;100762.25;5017814;28;45316;-47
2022/10/20 05:11:18;;;;;;;;;11.50;8.50;;;;;18.11;88.33;100771.78;5018152;28;45361;-45
2022/10/20 05:13:43;;;;;;;;;12.75;10.25;;;;;18.12;87.96;100778.84;5018015;28;45444;-48
2022/10/20 05:16:10;;;;;;;;;12.50;9.50;;;;;18.00;88.18;100775.84;5017614;28;46235;-46
2022/10/20 05:18:36;;;;;;;;;13.25;9.75;;;;;18.08;88.27;100794.56;5017516;28;45226;-45
2022/10/20 05:21:20;;;;;;;;;15.75;10.75;;;;;18.07;87.92;100790.16;5017394;28;45486;-50
2022/10/20 05:23:46;;;;;;;;;15.75;8.25;;;;;18.06;88.35;100769.66;5017481;28;45397;-47
2022/10/20 05:26:16;;;;;;;;;10.00;8.25;;;;;18.05;88.47;100791.41;5017576;28;47172;-47
2022/10/20 05:28:44;;;;;;;;;10.75;8.25;;;;;17.70;88.39;100750.94;5017502;28;45438;-47
2022/10/20 05:31:09;;;;;;;;;9.75;8.25;;;;;17.93;88.83;100785.72;5017513;28;45386;-49
2022/10/20 05:33:35;;;;;;;;;8.50;8.00;;;;;17.99;88.03;100793.00;5018013;28;45373;-46
2022/10/20 05:36:09;;;;;;;;;11.25;8.00;;;;;18.01;87.95;100803.59;5016699;28;45388;-48
2022/10/20 05:38:35;;;;;;;;;12.50;8.75;;;;;17.98;88.02;100798.59;5017444;28;45240;-45
2022/10/20 05:41:14;;;;;;;;;9.00;7.00;;;;;18.01;87.88;100796.34;5017460;28;45387;-45
2022/10/20 05:43:39;;;;;;;;;11.00;9.50;;;;;17.98;87.48;100790.50;5017664;28;45411;-48
2022/10/20 05:46:06;;;;;;;;;11.25;8.00;;;;;17.97;86.87;100791.53;5017048;28;46856;-48
2022/10/20 05:48:31;;;;;;;;;8.75;6.75;;;;;17.97;86.32;100778.91;5017393;28;45421;-47
2022/10/20 05:51:13;;;;;;;;;8.00;7.25;;;;;18.01;86.16;100774.00;5017292;28;45448;-45
2022/10/20 05:53:39;;;;;;;;;10.50;7.50;;;;;18.01;85.70;100772.13;5017850;28;45493;-47
2022/10/20 05:56:11;;;;;;;;;8.00;7.50;;;;;18.03;85.17;100774.59;5017707;28;45625;-48
2022/10/20 05:58:37;;;;;;;;;6.00;6.00;;;;;18.05;84.86;100781.47;5017660;28;45347;-47
2022/10/20 06:01:23;;;;;;;;;5.75;5.75;;;;;18.04;85.49;100768.22;5017465;28;45173;-48
2022/10/20 06:03:57;;;;;;;;;6.50;6.00;;;;;18.05;84.96;100765.31;5016684;28;45310;-47
2022/10/20 06:06:25;;;;;;;;;7.75;5.00;;;;;18.06;84.25;100758.06;5017027;28;46248;-48
2022/10/20 06:08:50;;;;;;;;;4.60;4.20;;;;;18.01;84.28;100755.16;5016975;28;45380;-46
2022/10/20 06:11:17;;;;;;;;;7.00;6.00;;;;;17.99;84.73;100733.78;5017149;28;45306;-47
2022/10/20 06:13:43;;;;;;;;;8.50;5.50;;;;;17.96;84.77;100728.81;5017313;28;45416;-50
2022/10/20 06:16:15;;;;;;;;;5.75;5.50;;;;;17.90;84.37;100705.34;5017072;28;46225;-45
2022/10/20 06:18:42;;;;;;;;;7.00;5.60;;;;;17.87;84.40;100686.94;5016361;28;45431;-45
2022/10/20 06:21:29;;;;;;;;;7.00;5.75;;;;;17.85;84.73;100683.59;5016867;28;45360;-48
2022/10/20 06:23:56;;;;;;;;;8.75;6.00;;;;;17.80;85.47;100686.03;5017046;28;45267;-48
2022/10/20 06:26:23;;;;;;;;;9.00;6.50;;;;;17.74;85.56;100679.59;5016825;28;47187;-48
2022/10/20 06:28:53;;;;;;;;;7.25;7.25;;;;;17.70;86.26;100657.59;5016929;28;45238;-48
2022/10/20 06:31:29;;;;;;;;;7.75;6.75;;;;;17.72;86.06;100641.25;5016979;28;45457;-45
2022/10/20 06:33:56;;;;;;;;;3.75;3.50;;;;;17.64;86.46;100634.16;5016937;28;45379;-47
2022/10/20 06:36:23;;;;;;;;;8.00;6.50;;;;;17.66;87.50;100659.00;5016306;28;46094;-48
2022/10/20 06:38:55;;;;;;;;;12.50;9.25;;;;;17.57;87.98;100643.19;5016813;28;45449;-48
2022/10/20 06:41:21;;;;;;;;;14.75;7.75;;;;;17.59;87.81;100644.66;5016504;28;45430;-47
2022/10/20 06:43:46;;;;;;;;;3.50;1.00;;;;;17.55;87.59;100654.16;5017064;28;45386;-49
2022/10/20 06:46:15;;;;;;;;;8.00;5.75;;;;;17.56;87.92;100650.44;5016738;28;45278;-50
2022/10/20 06:48:41;;;;;;;;;7.00;6.25;;;;;17.53;87.97;100649.97;5018377;28;45364;-46
2022/10/20 06:51:10;;;;;;;;;9.75;7.25;;;;;17.52;87.68;100656.38;5020260;28;45411;-54
2022/10/20 06:53:38;;;;;;;;;11.00;6.75;;;;;17.53;87.51;100679.56;5020470;28;45424;-46
2022/10/20 06:56:09;;;;;;;;;17.25;9.75;;;;;17.54;86.46;100690.16;5019884;28;45491;-47
2022/10/20 06:58:36;;;;;;;;;10.50;6.00;;;;;17.55;86.33;100689.13;5020008;28;45303;-47
2022/10/20 07:01:06;;;;;;;;;7.25;7.25;;;;;17.50;86.10;100696.94;5019950;28;45431;-46
2022/10/20 07:03:33;;;;;;;;;9.75;6.25;;;;;17.51;85.88;100719.28;5020015;28;45591;-45
2022/10/20 07:05:59;;;;;;;;;5.75;4.00;;;;;17.47;85.34;100729.59;5019828;28;45559;-48
2022/10/20 07:08:29;;;;;;;;;6.00;5.00;;;;;17.50;85.35;100739.13;5019854;28;45369;-49
2022/10/20 07:11:05;;;;;;;;;15.00;7.00;;;;;17.51;84.70;100741.63;5020081;28;45363;-45
2022/10/20 07:13:32;;;;;;;;;6.00;6.00;;;;;17.51;85.17;100757.75;5020419;28;45436;-47
2022/10/20 07:15:58;;;;;;;;;6.00;5.75;;;;;17.40;84.80;100743.00;5019732;28;45421;-48
2022/10/20 07:18:25;;;;;;;;;6.25;5.75;;;;;17.50;85.12;100750.72;5019621;28;45337;-46
2022/10/20 07:20:54;;;;;;;;;8.75;7.00;;;;;17.52;85.06;100766.66;5019590;28;45289;-47
2022/10/20 07:23:20;;;;;;;;;6.00;6.00;;;;;17.55;85.13;100769.81;5019953;28;45404;-46
2022/10/20 07:25:45;;;;;;;;;8.25;6.25;;;;;17.62;85.07;100772.56;5019208;28;45999;-48
2022/10/20 07:28:10;;;;;;;;;5.25;5.00;;;;;17.65;84.16;100778.38;5006259;28;45348;-45
2022/10/20 07:30:40;;;;;;;;;9.50;6.25;;;;;17.63;84.07;100769.69;5019355;28;45463;-51
2022/10/20 07:33:06;;;;;;;;;6.75;4.75;;;;;17.60;83.78;100777.31;5019808;28;45370;-45
2022/10/20 07:35:32;;;;;;;;;11.00;4.00;;;;;17.58;83.95;100780.19;5018803;28;45398;-47
2022/10/20 07:37:58;;;;;;;;;8.25;5.50;;;;;17.57;83.81;100786.59;5016236;28;45539;-45
2022/10/20 07:40:23;;;;;;;;;12.50;7.00;;;;;17.58;84.39;100777.50;5019301;28;45435;-46
2022/10/20 07:42:48;;;;;;;;;7.75;7.00;;;;;17.57;84.41;100774.97;5019478;28;45238;-45
2022/10/20 07:45:13;;;;;;;;;9.50;7.00;;;;;17.65;84.28;100780.25;5019181;28;46074;-49
2022/10/20 07:47:39;;;;;;;;;7.00;7.00;;;;;17.68;84.03;100777.19;5019079;28;45308;-42
2022/10/20 07:50:05;;;;;;;;;9.00;5.25;;;;;17.70;83.87;100784.03;5017536;28;45538;-45
2022/10/20 07:52:30;;;;;;;;;2.75;2.25;;;;;17.72;83.61;100770.38;5016928;28;45518;-44
2022/10/20 07:54:56;;;;;;;;;6.75;6.00;;;;;17.78;83.59;100780.44;5016261;28;46231;-52
2022/10/20 07:57:22;;;;;;;;;8.75;7.00;;;;;17.79;83.48;100776.69;5016171;28;45411;-47
2022/10/20 07:59:47;;;;;;;;;9.75;6.75;;;;;17.84;83.82;100785.03;5015905;28;45521;-49
2022/10/20 08:02:14;;;;;;;;;13.00;10.50;;;;;17.90;83.76;100778.03;5016330;28;45640;-49
2022/10/20 08:04:40;;;;;;;;;8.00;8.00;;;;;17.93;83.74;100778.47;5016169;28;47202;-47
2022/10/20 08:07:06;;;;;;;;;12.00;8.00;;;;;17.96;83.57;100782.66;5015578;28;45446;-44
2022/10/20 08:09:31;;;;;;;;;8.50;8.50;;;;;17.97;83.50;100772.72;5016484;28;45446;-51
2022/10/20 08:11:56;;;;;;;;;10.50;6.75;;;;;18.00;83.42;100778.53;5016402;28;45584;-48
2022/10/20 08:14:25;;;;;;;;;11.75;7.25;;;;;18.04;83.12;100771.75;5015892;28;45912;-48
2022/10/20 08:16:51;;;;;;;;;8.50;8.00;;;;;18.20;82.58;100768.75;5015729;28;45451;-45
2022/10/20 08:19:16;;;;;;;;;7.25;5.75;;;;;18.32;81.98;100746.66;5015857;28;46012;-48
2022/10/20 08:21:41;;;;;;;;;7.50;6.00;;;;;18.63;80.57;100757.00;5016036;28;45487;-46
2022/10/20 08:24:07;;;;;;;;;10.50;7.00;;;;;18.69;80.05;100761.59;5015770;28;45514;-48
2022/10/20 08:26:33;;;;;;;;;6.00;6.00;;;;;18.69;79.69;100757.06;5015634;28;45480;-49
2022/10/20 08:28:58;;;;;;;;;7.00;6.00;;;;;18.68;78.89;100770.72;5015659;28;45436;-44
2022/10/20 08:31:24;;;;;;;;;7.25;5.75;;;;;18.63;78.88;100774.00;5016153;28;45600;-49
2022/10/20 08:33:49;;;;;;;;;5.00;3.75;;;;;18.61;78.91;100775.22;5016110;28;47085;-48
2022/10/20 08:36:15;;;;;;;;;7.25;5.50;;;;;18.66;78.55;100784.38;5015992;28;45562;-46
2022/10/20 08:38:41;;;;;;;;;6.00;5.75;;;;;18.69;78.62;100775.06;5015588;28;45508;-47
2022/10/20 08:41:17;;;;;;;;;6.00;6.00;;;;;18.73;78.29;100770.16;5016235;28;45461;-47
2022/10/20 08:43:42;;;;;;;;;5.75;5.00;;;;;18.82;78.22;100779.72;5015374;28;46211;-45
2022/10/20 08:46:14;;;;;;;;;6.00;4.75;;;;;18.88;77.95;100782.47;5015616;28;45336;-49
2022/10/20 08:48:40;;;;;;;;;8.25;7.75;;;;;18.87;77.75;100785.34;5015465;28;45479;-46
2022/10/20 08:51:16;;;;;;;;;7.50;5.75;;;;;18.87;77.67;100796.13;5015015;28;45410;-46
2022/10/20 08:53:41;;;;;;;;;8.00;5.00;;;;;18.84;77.65;100796.53;5014282;28;46215;-45
2022/10/20 08:56:12;;;;;;;;;7.00;4.75;;;;;18.73;77.67;100776.38;5015146;28;45433;-45
2022/10/20 08:58:42;;;;;;;;;7.00;7.00;;;;;18.77;77.78;100793.78;5015484;28;45416;-47
2022/10/20 09:01:18;;;;;;;;;7.00;5.75;;;;;18.78;77.72;100779.28;5015818;28;45444;-47
2022/10/20 09:03:44;;;;;;;;;9.25;6.50;;;;;18.98;77.65;100778.56;5015371;28;45457;-45
2022/10/20 09:06:15;;;;;;;;;9.75;5.00;;;;;19.34;76.92;100776.41;5015492;28;45401;-51
2022/10/20 09:08:42;;;;;;;;;3.75;3.50;;;;;21.16;72.45;100793.97;5015573;28;45606;-46
2022/10/20 09:11:15;;;;;;;;;5.80;5.00;;;;;23.78;63.73;100791.06;5014984;28;45440;-50
2022/10/20 09:13:40;;;;;;;;;7.40;5.80;;;;;25.14;58.96;100792.59;5015482;28;45439;-46
2022/10/20 09:16:10;;;;;;;;;8.75;6.75;;;;;25.64;54.90;100789.16;5014775;28;45372;-47
2022/10/20 09:18:36;;;;;;;;;4.60;3.00;;;;;25.51;60.88;100781.31;5015161;28;45416;-47
2022/10/20 09:21:15;;;;;;;;;6.75;5.00;;;;;25.36;57.87;100775.56;5015359;28;45446;-47
2022/10/20 09:23:44;;;;;;;;;4.00;4.00;;;;;25.33;56.26;100784.25;5014931;28;46350;-48
2022/10/20 09:26:18;;;;;;;;;6.60;4.60;;;;;25.37;55.97;100771.78;5015399;28;45525;-46
2022/10/20 09:28:49;;;;;;;;;3.40;3.00;;;;;25.50;58.44;100752.41;5015512;28;45379;-45
2022/10/20 09:31:36;;;;;;;;;5.20;3.00;;;;;25.68;55.55;100766.88;5015110;28;45458;-45
2022/10/20 09:34:19;;;;;;;;;3.20;3.20;;;;;25.86;55.42;100753.88;5014796;28;46448;-48
2022/10/20 09:36:46;;;;;;;;;4.20;3.00;;;;;26.13;53.18;100745.84;5014974;28;45638;-47
2022/10/20 09:39:27;;;;;;;;;6.40;4.80;;;;;27.16;54.28;100750.78;5015188;28;45392;-44
2022/10/20 09:42:03;;;;;;;;;6.80;5.20;;;;;28.33;49.92;100760.00;5012767;28;45476;-47
2022/10/20 09:44:32;;;;;;;;;3.80;3.80;;;;;29.34;46.91;100745.13;5014869;28;46111;-46
2022/10/20 09:46:59;;;;;;;;;5.60;4.60;;;;;30.34;46.82;100752.00;4996983;28;45476;-47
2022/10/20 09:49:35;;;;;;;;;4.00;3.00;;;;;30.80;43.57;100755.44;5015070;28;45408;-45
2022/10/20 09:52:03;;;;;;;;;4.00;3.00;;;;;30.83;42.17;100734.00;5014865;28;45429;-45
2022/10/20 09:54:29;;;;;;;;;4.40;3.00;;;;;31.21;42.46;100768.94;5014465;28;45456;-47
2022/10/20 09:57:05;;;;;;;;;3.00;2.00;;;;;31.29;43.19;100749.16;5014630;28;45444;-44
2022/10/20 09:59:35;;;;;;;;;2.40;2.40;;;;;31.64;39.47;100740.91;5014569;28;45429;-46
2022/10/20 10:02:03;;;;;;;;;4.20;3.00;;;;;31.32;40.77;100755.19;5014726;28;45527;-45
2022/10/20 10:04:34;;;;;;;;;2.20;2.20;;;;;30.85;40.45;100748.28;5014314;28;47113;-44
2022/10/20 10:07:00;;;;;;;;;2.00;2.00;;;;;31.20;40.37;100748.06;5014547;28;45448;-48
2022/10/20 10:09:36;;;;;;;;;3.00;3.00;;;;;31.39;38.92;100673.22;5014421;28;45492;-47
2022/10/20 10:12:16;;;;;;;;;3.80;1.80;;;;;32.35;39.86;100754.03;5014723;28;45405;-45
2022/10/20 10:14:53;;;;;;;;;2.20;2.20;;;;;33.01;39.23;100742.25;5014178;28;46383;-46
2022/10/20 10:17:32;;;;;;;;;3.00;1.40;;;;;33.51;37.95;100736.31;5014410;28;45380;-46
2022/10/20 10:20:00;;;;;;;;;2.00;1.00;;;;;33.49;34.07;100752.31;5014480;28;45525;-50
2022/10/20 10:22:26;;;;;;;;;1.40;1.20;;;;;32.30;36.33;100743.06;5014222;28;45318;-45
2022/10/20 10:24:54;;;;;;;;;2.00;2.00;;;;;30.57;40.38;100729.41;5014329;28;46499;-46
2022/10/20 10:27:30;;;;;;;;;2.60;1.60;;;;;29.00;41.73;100733.81;5014354;28;45377;-46
2022/10/20 10:30:15;;;;;;;;;4.80;2.00;;;;;27.65;46.38;100731.59;5014265;28;45352;-46
2022/10/20 10:32:46;;;;;;;;;1.80;1.80;;;;;26.70;46.54;100731.09;5014226;28;45447;-47
2022/10/20 10:35:27;;;;;;;;;3.20;2.40;;;;;26.07;48.09;100729.66;5014112;28;45585;-45
2022/10/20 10:37:54;;;;;;;;;1.00;1.00;;;;;25.46;49.14;100723.19;5013765;28;45440;-47
2022/10/20 10:40:21;;;;;;;;;3.20;3.20;;;;;24.95;50.66;100712.16;5014171;28;45305;-48
2022/10/20 10:43:12;;;;;;;;;1.40;1.20;;;;;24.66;51.71;100721.38;5014274;28;45240;-47
2022/10/20 10:45:50;;;;;;;;;3.40;1.20;;;;;24.41;51.17;100725.19;5013863;28;46248;-48
2022/10/20 10:48:48;;;;;;;;;3.00;1.80;;;;;24.25;51.39;100715.84;5014095;28;45427;-44
2022/10/20 10:51:40;;;;;;;;;4.60;3.80;;;;;24.11;50.92;100717.97;5013779;28;45519;-46
2022/10/20 10:54:47;;;;;;;;;1.60;1.00;;;;;25.59;49.68;100710.09;5011387;28;45585;-46
2022/10/20 10:57:43;;;;;;;;;2.20;1.60;;;;;26.54;47.76;100701.97;5013545;28;46329;-47
2022/10/20 11:00:28;;;;;;;;;0.20;0.20;;;;;27.32;45.79;100691.69;5013490;28;45356;-49
2022/10/20 11:03:02;;;;;;;;;1.00;0.00;;;;;28.31;44.39;100684.75;5014444;28;45590;-45
2022/10/20 11:05:36;;;;;;;;;1.00;1.00;;;;;28.68;43.34;100692.88;5014325;28;45422;-45
2022/10/20 11:08:10;;;;;;;;;3.00;2.00;;;;;28.88;42.53;100694.88;5013530;28;45399;-47
2022/10/20 11:11:00;;;;;;;;;1.00;1.00;;;;;29.04;41.36;100695.75;5014373;28;45554;-44
2022/10/20 11:13:49;;;;;;;;;3.20;2.00;;;;;29.21;41.05;100676.34;5013989;28;45479;-47
2022/10/20 11:16:53;;;;;;;;;2.60;2.60;;;;;29.46;42.28;100672.78;5014220;28;45422;-47
2022/10/20 11:19:46;;;;;;;;;2.60;2.00;;;;;30.02;40.96;100668.06;4972891;28;46324;-45
2022/10/20 11:22:49;;;;;;;;;4.40;3.40;;;;;30.19;39.03;100662.31;4971852;28;45517;-49
2022/10/20 11:25:36;;;;;;;;;0.60;0.60;;;;;30.01;42.47;100666.44;4974726;28;45613;-48
2022/10/20 11:28:26;;;;;;;;;3.40;3.40;;;;;29.27;40.60;100669.75;4965663;28;45615;-49
2022/10/20 11:30:52;;;;;;;;;4.60;1.60;;;;;28.32;40.52;100645.38;4952342;28;45502;-47
2022/10/20 11:33:22;;;;;;;;;2.50;1.50;;;;;27.81;43.42;100658.75;4952564;28;45494;-48